sensor_id;sensor_type;location;lat;lon;timestamp;pressure;altitude;pressure_sealevel;temperature
68027;BMP180;54819;48.030;14.710;2023-03-03T00:01:18;97528.60;;;2.80
68027;BMP180;54819;48.030;14.710;2023-03-03T00:03:45;97534.80;;;2.80
68027;BMP180;54819;48.030;14.710;2023-03-03T00:06:13;97533.40;;;2.80
68027;BMP180;54819;48.030;14.710;2023-03-03T00:08:41;97532.20;;;2.80
68027;BMP180;54819;48.030;14.710;2023-03-03T00:11:08;97536.40;;;2.74
68027;BMP180;54819;48.030;14.710;2023-03-03T00:13:50;97538.00;;;2.70
68027;BMP180;54819;48.030;14.710;2023-03-03T00:16:29;97540.80;;;2.70
68027;BMP180;54819;48.030;14.710;2023-03-03T00:18:57;97540.20;;;2.70
68027;BMP180;54819;48.030;14.710;2023-03-03T00:21:34;97539.20;;;2.70
68027;BMP180;54819;48.030;14.710;2023-03-03T00:24:22;97540.20;;;2.70
68027;BMP180;54819;48.030;14.710;2023-03-03T00:26:52;97543.20;;;2.70
68027;BMP180;54819;48.030;14.710;2023-03-03T00:29:38;97545.00;;;2.70
68027;BMP180;54819;48.030;14.710;2023-03-03T00:34:36;97540.80;;;2.72
68027;BMP180;54819;48.030;14.710;2023-03-03T00:39:45;97546.40;;;2.80
68027;BMP180;54819;48.030;14.710;2023-03-03T00:42:14;97542.80;;;2.80
68027;BMP180;54819;48.030;14.710;2023-03-03T00:44:54;97547.20;;;2.80
68027;BMP180;54819;48.030;14.710;2023-03-03T00:47:38;97544.20;;;2.90
68027;BMP180;54819;48.030;14.710;2023-03-03T00:52:38;97546.20;;;2.92
68027;BMP180;54819;48.030;14.710;2023-03-03T00:55:07;97550.20;;;3.00
68027;BMP180;54819;48.030;14.710;2023-03-03T00:57:34;97552.80;;;3.00
68027;BMP180;54819;48.030;14.710;2023-03-03T01:00:03;97551.20;;;3.00
68027;BMP180;54819;48.030;14.710;2023-03-03T01:02:30;97555.80;;;3.10
68027;BMP180;54819;48.030;14.710;2023-03-03T01:04:58;97553.20;;;3.10
68027;BMP180;54819;48.030;14.710;2023-03-03T01:07:25;97554.40;;;3.10
68027;BMP180;54819;48.030;14.710;2023-03-03T01:09:52;97555.00;;;3.10
68027;BMP180;54819;48.030;14.710;2023-03-03T01:12:19;97549.60;;;3.12
68027;BMP180;54819;48.030;14.710;2023-03-03T01:14:46;97556.60;;;3.20
68027;BMP180;54819;48.030;14.710;2023-03-03T01:17:15;97556.20;;;3.20
68027;BMP180;54819;48.030;14.710;2023-03-03T01:19:43;97554.80;;;3.20
68027;BMP180;54819;48.030;14.710;2023-03-03T01:22:10;97557.20;;;3.20
68027;BMP180;54819;48.030;14.710;2023-03-03T01:24:37;97559.20;;;3.30
68027;BMP180;54819;48.030;14.710;2023-03-03T01:27:04;97555.80;;;3.30
68027;BMP180;54819;48.030;14.710;2023-03-03T01:29:31;97549.80;;;3.30
68027;BMP180;54819;48.030;14.710;2023-03-03T01:31:58;97552.00;;;3.30
68027;BMP180;54819;48.030;14.710;2023-03-03T01:34:25;97553.20;;;3.30
68027;BMP180;54819;48.030;14.710;2023-03-03T01:36:52;97552.60;;;3.40
68027;BMP180;54819;48.030;14.710;2023-03-03T01:39:19;97553.00;;;3.40
68027;BMP180;54819;48.030;14.710;2023-03-03T01:41:46;97556.60;;;3.40
68027;BMP180;54819;48.030;14.710;2023-03-03T01:44:14;97554.00;;;3.50
68027;BMP180;54819;48.030;14.710;2023-03-03T01:46:53;97553.40;;;3.50
68027;BMP180;54819;48.030;14.710;2023-03-03T01:49:25;97553.00;;;3.50
68027;BMP180;54819;48.030;14.710;2023-03-03T01:51:57;97554.80;;;3.54
68027;BMP180;54819;48.030;14.710;2023-03-03T01:54:50;97566.60;;;3.60
68027;BMP180;54819;48.030;14.710;2023-03-03T01:57:23;97562.00;;;3.60
68027;BMP180;54819;48.030;14.710;2023-03-03T01:59:52;97565.60;;;3.70
68027;BMP180;54819;48.030;14.710;2023-03-03T02:02:21;97569.20;;;3.70
68027;BMP180;54819;48.030;14.710;2023-03-03T02:04:49;97571.40;;;3.70
68027;BMP180;54819;48.030;14.710;2023-03-03T02:07:17;97562.60;;;3.76
68027;BMP180;54819;48.030;14.710;2023-03-03T02:10:06;97570.60;;;3.80
68027;BMP180;54819;48.030;14.710;2023-03-03T02:15:25;97570.40;;;3.80
68027;BMP180;54819;48.030;14.710;2023-03-03T02:17:55;97566.00;;;3.80
68027;BMP180;54819;48.030;14.710;2023-03-03T02:28:27;97572.20;;;3.90
68027;BMP180;54819;48.030;14.710;2023-03-03T02:30:56;97572.40;;;3.90
68027;BMP180;54819;48.030;14.710;2023-03-03T02:33:24;97574.00;;;3.90
68027;BMP180;54819;48.030;14.710;2023-03-03T02:35:51;97574.60;;;3.90
68027;BMP180;54819;48.030;14.710;2023-03-03T02:38:29;97573.20;;;3.90
68027;BMP180;54819;48.030;14.710;2023-03-03T02:41:20;97570.60;;;3.90
68027;BMP180;54819;48.030;14.710;2023-03-03T02:46:32;97566.80;;;4.00
68027;BMP180;54819;48.030;14.710;2023-03-03T02:49:00;97565.80;;;4.00
68027;BMP180;54819;48.030;14.710;2023-03-03T02:51:27;97567.20;;;4.00
68027;BMP180;54819;48.030;14.710;2023-03-03T02:53:54;97568.40;;;4.00
68027;BMP180;54819;48.030;14.710;2023-03-03T02:56:22;97568.80;;;3.96
68027;BMP180;54819;48.030;14.710;2023-03-03T02:58:49;97571.20;;;3.98
68027;BMP180;54819;48.030;14.710;2023-03-03T03:01:17;97570.00;;;3.96
68027;BMP180;54819;48.030;14.710;2023-03-03T03:03:45;97570.20;;;3.94
68027;BMP180;54819;48.030;14.710;2023-03-03T03:06:13;97568.80;;;3.90
68027;BMP180;54819;48.030;14.710;2023-03-03T03:08:41;97574.20;;;3.94
68027;BMP180;54819;48.030;14.710;2023-03-03T03:11:08;97581.00;;;3.90
68027;BMP180;54819;48.030;14.710;2023-03-03T03:13:36;97578.80;;;3.90
68027;BMP180;54819;48.030;14.710;2023-03-03T03:16:04;97576.00;;;3.90
68027;BMP180;54819;48.030;14.710;2023-03-03T03:18:32;97577.20;;;3.90
68027;BMP180;54819;48.030;14.710;2023-03-03T03:21:11;97575.80;;;3.90
68027;BMP180;54819;48.030;14.710;2023-03-03T03:23:39;97573.60;;;3.90
68027;BMP180;54819;48.030;14.710;2023-03-03T03:26:07;97576.40;;;3.94
68027;BMP180;54819;48.030;14.710;2023-03-03T03:28:34;97576.00;;;3.98
68027;BMP180;54819;48.030;14.710;2023-03-03T03:31:03;97575.00;;;4.00
68027;BMP180;54819;48.030;14.710;2023-03-03T03:33:31;97576.00;;;4.00
68027;BMP180;54819;48.030;14.710;2023-03-03T03:35:59;97575.00;;;4.00
68027;BMP180;54819;48.030;14.710;2023-03-03T03:38:27;97574.40;;;4.00
68027;BMP180;54819;48.030;14.710;2023-03-03T03:40:56;97577.20;;;4.00
68027;BMP180;54819;48.030;14.710;2023-03-03T03:43:23;97573.00;;;4.00
68027;BMP180;54819;48.030;14.710;2023-03-03T03:45:50;97576.40;;;4.00
68027;BMP180;54819;48.030;14.710;2023-03-03T03:48:18;97578.20;;;4.00
68027;BMP180;54819;48.030;14.710;2023-03-03T03:50:47;97585.20;;;4.00
68027;BMP180;54819;48.030;14.710;2023-03-03T03:53:15;97588.00;;;4.00
68027;BMP180;54819;48.030;14.710;2023-03-03T03:55:44;97574.00;;;4.00
68027;BMP180;54819;48.030;14.710;2023-03-03T03:58:13;97585.00;;;4.00
68027;BMP180;54819;48.030;14.710;2023-03-03T04:00:41;97589.40;;;4.00
68027;BMP180;54819;48.030;14.710;2023-03-03T04:03:09;97584.60;;;4.00
68027;BMP180;54819;48.030;14.710;2023-03-03T04:05:41;97582.00;;;4.00
68027;BMP180;54819;48.030;14.710;2023-03-03T04:08:09;97581.00;;;4.00
68027;BMP180;54819;48.030;14.710;2023-03-03T04:10:37;97582.60;;;4.00
68027;BMP180;54819;48.030;14.710;2023-03-03T04:13:04;97581.80;;;4.00
68027;BMP180;54819;48.030;14.710;2023-03-03T04:15:32;97583.00;;;4.00
68027;BMP180;54819;48.030;14.710;2023-03-03T04:17:59;97582.20;;;4.00
68027;BMP180;54819;48.030;14.710;2023-03-03T04:20:27;97582.40;;;4.00
68027;BMP180;54819;48.030;14.710;2023-03-03T04:22:54;97585.00;;;4.00
68027;BMP180;54819;48.030;14.710;2023-03-03T04:25:23;97581.20;;;3.90
68027;BMP180;54819;48.030;14.710;2023-03-03T04:27:51;97587.80;;;3.90
68027;BMP180;54819;48.030;14.710;2023-03-03T04:30:19;97591.80;;;3.90
68027;BMP180;54819;48.030;14.710;2023-03-03T04:32:48;97591.60;;;3.80
68027;BMP180;54819;48.030;14.710;2023-03-03T04:35:18;97596.40;;;3.80
68027;BMP180;54819;48.030;14.710;2023-03-03T04:37:46;97604.80;;;3.76
68027;BMP180;54819;48.030;14.710;2023-03-03T04:40:14;97608.80;;;3.70
68027;BMP180;54819;48.030;14.710;2023-03-03T04:42:42;97608.40;;;3.70
68027;BMP180;54819;48.030;14.710;2023-03-03T04:45:10;97606.40;;;3.60
68027;BMP180;54819;48.030;14.710;2023-03-03T04:47:37;97614.80;;;3.60
68027;BMP180;54819;48.030;14.710;2023-03-03T04:50:09;97612.00;;;3.60
68027;BMP180;54819;48.030;14.710;2023-03-03T04:52:37;97610.40;;;3.60
68027;BMP180;54819;48.030;14.710;2023-03-03T04:55:05;97613.40;;;3.50
68027;BMP180;54819;48.030;14.710;2023-03-03T04:57:36;97608.60;;;3.50
68027;BMP180;54819;48.030;14.710;2023-03-03T05:00:04;97604.00;;;3.50
68027;BMP180;54819;48.030;14.710;2023-03-03T05:02:32;97606.80;;;3.50
68027;BMP180;54819;48.030;14.710;2023-03-03T05:04:59;97607.00;;;3.50
68027;BMP180;54819;48.030;14.710;2023-03-03T05:07:26;97608.00;;;3.40
68027;BMP180;54819;48.030;14.710;2023-03-03T05:09:53;97618.00;;;3.40
68027;BMP180;54819;48.030;14.710;2023-03-03T05:12:20;97621.80;;;3.34
68027;BMP180;54819;48.030;14.710;2023-03-03T05:14:47;97621.60;;;3.30
68027;BMP180;54819;48.030;14.710;2023-03-03T05:17:14;97622.60;;;3.24
68027;BMP180;54819;48.030;14.710;2023-03-03T05:19:42;97628.60;;;3.20
68027;BMP180;54819;48.030;14.710;2023-03-03T05:22:08;97631.80;;;3.10
68027;BMP180;54819;48.030;14.710;2023-03-03T05:24:36;97631.60;;;3.10
68027;BMP180;54819;48.030;14.710;2023-03-03T05:27:03;97632.00;;;3.08
68027;BMP180;54819;48.030;14.710;2023-03-03T05:29:30;97628.80;;;3.00
68027;BMP180;54819;48.030;14.710;2023-03-03T05:31:57;97628.20;;;2.98
68027;BMP180;54819;48.030;14.710;2023-03-03T05:34:25;97629.80;;;2.90
68027;BMP180;54819;48.030;14.710;2023-03-03T05:36:52;97634.80;;;2.90
68027;BMP180;54819;48.030;14.710;2023-03-03T05:39:18;97642.40;;;2.88
68027;BMP180;54819;48.030;14.710;2023-03-03T05:41:45;97649.40;;;2.86
68027;BMP180;54819;48.030;14.710;2023-03-03T05:44:13;97654.00;;;2.80
68027;BMP180;54819;48.030;14.710;2023-03-03T05:46:40;97658.20;;;2.80
68027;BMP180;54819;48.030;14.710;2023-03-03T05:49:08;97659.20;;;2.80
68027;BMP180;54819;48.030;14.710;2023-03-03T05:51:35;97660.40;;;2.82
68027;BMP180;54819;48.030;14.710;2023-03-03T05:54:02;97666.00;;;2.90
68027;BMP180;54819;48.030;14.710;2023-03-03T05:56:29;97666.80;;;2.90
68027;BMP180;54819;48.030;14.710;2023-03-03T05:58:56;97665.40;;;2.94
68027;BMP180;54819;48.030;14.710;2023-03-03T06:01:23;97661.20;;;3.00
68027;BMP180;54819;48.030;14.710;2023-03-03T06:03:50;97663.00;;;3.10
68027;BMP180;54819;48.030;14.710;2023-03-03T06:06:17;97660.60;;;3.10
68027;BMP180;54819;48.030;14.710;2023-03-03T06:08:45;97660.40;;;3.20
68027;BMP180;54819;48.030;14.710;2023-03-03T06:11:12;97661.40;;;3.30
68027;BMP180;54819;48.030;14.710;2023-03-03T06:13:39;97662.80;;;3.40
68027;BMP180;54819;48.030;14.710;2023-03-03T06:16:08;97655.20;;;3.46
68027;BMP180;54819;48.030;14.710;2023-03-03T06:18:35;97659.60;;;3.50
68027;BMP180;54819;48.030;14.710;2023-03-03T06:21:02;97654.20;;;3.60
68027;BMP180;54819;48.030;14.710;2023-03-03T06:23:29;97659.40;;;3.70
68027;BMP180;54819;48.030;14.710;2023-03-03T06:25:56;97664.40;;;3.80
68027;BMP180;54819;48.030;14.710;2023-03-03T06:28:23;97670.40;;;3.86
68027;BMP180;54819;48.030;14.710;2023-03-03T06:30:54;97671.40;;;3.90
68027;BMP180;54819;48.030;14.710;2023-03-03T06:33:22;97667.60;;;4.00
68027;BMP180;54819;48.030;14.710;2023-03-03T06:35:50;97674.40;;;4.04
68027;BMP180;54819;48.030;14.710;2023-03-03T06:38:18;97673.80;;;4.10
68027;BMP180;54819;48.030;14.710;2023-03-03T06:40:46;97676.00;;;4.14
68027;BMP180;54819;48.030;14.710;2023-03-03T06:43:13;97679.80;;;4.20
68027;BMP180;54819;48.030;14.710;2023-03-03T06:45:40;97684.00;;;4.20
68027;BMP180;54819;48.030;14.710;2023-03-03T06:48:07;97697.00;;;4.26
68027;BMP180;54819;48.030;14.710;2023-03-03T06:50:34;97701.60;;;4.30
68027;BMP180;54819;48.030;14.710;2023-03-03T06:53:13;97705.20;;;4.30
68027;BMP180;54819;48.030;14.710;2023-03-03T06:55:41;97706.20;;;4.30
68027;BMP180;54819;48.030;14.710;2023-03-03T06:58:19;97707.00;;;4.30
68027;BMP180;54819;48.030;14.710;2023-03-03T07:00:56;97708.40;;;4.30
68027;BMP180;54819;48.030;14.710;2023-03-03T07:03:25;97712.20;;;4.40
68027;BMP180;54819;48.030;14.710;2023-03-03T07:05:55;97717.80;;;4.40
68027;BMP180;54819;48.030;14.710;2023-03-03T07:08:23;97716.80;;;4.40
68027;BMP180;54819;48.030;14.710;2023-03-03T07:10:51;97722.80;;;4.40
68027;BMP180;54819;48.030;14.710;2023-03-03T07:13:24;97720.20;;;4.34
68027;BMP180;54819;48.030;14.710;2023-03-03T07:15:54;97716.80;;;4.30
68027;BMP180;54819;48.030;14.710;2023-03-03T07:18:29;97718.60;;;4.30
68027;BMP180;54819;48.030;14.710;2023-03-03T07:20:58;97720.20;;;4.40
68027;BMP180;54819;48.030;14.710;2023-03-03T07:23:37;97723.80;;;4.40
68027;BMP180;54819;48.030;14.710;2023-03-03T07:26:13;97725.60;;;4.44
68027;BMP180;54819;48.030;14.710;2023-03-03T07:28:51;97733.00;;;4.50
68027;BMP180;54819;48.030;14.710;2023-03-03T07:31:27;97739.80;;;4.50
68027;BMP180;54819;48.030;14.710;2023-03-03T07:33:56;97740.60;;;4.60
68027;BMP180;54819;48.030;14.710;2023-03-03T07:36:34;97738.60;;;4.70
68027;BMP180;54819;48.030;14.710;2023-03-03T07:39:20;97744.00;;;4.80
68027;BMP180;54819;48.030;14.710;2023-03-03T07:41:51;97745.60;;;4.90
68027;BMP180;54819;48.030;14.710;2023-03-03T07:44:30;97745.20;;;5.00
68027;BMP180;54819;48.030;14.710;2023-03-03T07:47:22;97750.40;;;5.10
68027;BMP180;54819;48.030;14.710;2023-03-03T07:49:51;97748.60;;;5.26
68027;BMP180;54819;48.030;14.710;2023-03-03T07:52:39;97749.20;;;5.40
68027;BMP180;54819;48.030;14.710;2023-03-03T07:57:53;97753.00;;;5.60
68027;BMP180;54819;48.030;14.710;2023-03-03T08:03:21;97753.00;;;5.90
68027;BMP180;54819;48.030;14.710;2023-03-03T08:05:49;97752.20;;;6.08
68027;BMP180;54819;48.030;14.710;2023-03-03T08:08:34;97754.40;;;6.20
68027;BMP180;54819;48.030;14.710;2023-03-03T08:11:03;97746.40;;;6.30
68027;BMP180;54819;48.030;14.710;2023-03-03T08:16:37;97752.20;;;6.50
68027;BMP180;54819;48.030;14.710;2023-03-03T08:19:05;97755.00;;;6.70
68027;BMP180;54819;48.030;14.710;2023-03-03T08:21:34;97752.80;;;6.70
68027;BMP180;54819;48.030;14.710;2023-03-03T08:24:02;97750.80;;;6.80
68027;BMP180;54819;48.030;14.710;2023-03-03T08:26:29;97754.00;;;6.96
68027;BMP180;54819;48.030;14.710;2023-03-03T08:29:11;97754.80;;;7.10
68027;BMP180;54819;48.030;14.710;2023-03-03T08:31:38;97758.80;;;7.20
68027;BMP180;54819;48.030;14.710;2023-03-03T08:34:10;97753.60;;;7.20
68027;BMP180;54819;48.030;14.710;2023-03-03T08:36:40;97746.20;;;7.30
68027;BMP180;54819;48.030;14.710;2023-03-03T08:39:07;97747.40;;;7.30
68027;BMP180;54819;48.030;14.710;2023-03-03T08:41:36;97747.20;;;7.30
68027;BMP180;54819;48.030;14.710;2023-03-03T08:44:05;97747.60;;;7.40
68027;BMP180;54819;48.030;14.710;2023-03-03T08:46:32;97746.80;;;7.42
68027;BMP180;54819;48.030;14.710;2023-03-03T08:48:59;97743.40;;;7.50
68027;BMP180;54819;48.030;14.710;2023-03-03T08:51:26;97743.60;;;7.60
68027;BMP180;54819;48.030;14.710;2023-03-03T08:53:54;97748.20;;;7.70
68027;BMP180;54819;48.030;14.710;2023-03-03T08:56:28;97745.00;;;7.70
68027;BMP180;54819;48.030;14.710;2023-03-03T08:58:58;97744.00;;;7.80
68027;BMP180;54819;48.030;14.710;2023-03-03T09:01:32;97746.60;;;7.80
68027;BMP180;54819;48.030;14.710;2023-03-03T09:04:02;97747.20;;;7.90
68027;BMP180;54819;48.030;14.710;2023-03-03T09:06:29;97750.20;;;7.90
68027;BMP180;54819;48.030;14.710;2023-03-03T09:09:00;97754.20;;;7.90
68027;BMP180;54819;48.030;14.710;2023-03-03T09:11:28;97753.20;;;7.98
68027;BMP180;54819;48.030;14.710;2023-03-03T09:14:05;97767.80;;;8.00
68027;BMP180;54819;48.030;14.710;2023-03-03T09:16:37;97767.80;;;8.08
68027;BMP180;54819;48.030;14.710;2023-03-03T09:19:25;97773.00;;;8.10
68027;BMP180;54819;48.030;14.710;2023-03-03T09:21:56;97767.40;;;8.10
68027;BMP180;54819;48.030;14.710;2023-03-03T09:24:29;97769.80;;;8.10
68027;BMP180;54819;48.030;14.710;2023-03-03T09:26:57;97775.60;;;8.10
68027;BMP180;54819;48.030;14.710;2023-03-03T09:29:30;97775.60;;;8.16
68027;BMP180;54819;48.030;14.710;2023-03-03T09:34:41;97763.60;;;8.20
68027;BMP180;54819;48.030;14.710;2023-03-03T09:37:25;97767.40;;;8.20
68027;BMP180;54819;48.030;14.710;2023-03-03T09:39:56;97769.00;;;8.30
68027;BMP180;54819;48.030;14.710;2023-03-03T09:45:45;97766.80;;;8.40
68027;BMP180;54819;48.030;14.710;2023-03-03T09:54:11;97759.80;;;8.50
68027;BMP180;54819;48.030;14.710;2023-03-03T09:56:49;97760.20;;;8.60
68027;BMP180;54819;48.030;14.710;2023-03-03T09:59:38;97768.80;;;8.62
68027;BMP180;54819;48.030;14.710;2023-03-03T10:05:16;97771.20;;;8.80
68027;BMP180;54819;48.030;14.710;2023-03-03T10:10:47;97768.00;;;8.90
68027;BMP180;54819;48.030;14.710;2023-03-03T10:13:40;97760.80;;;8.90
68027;BMP180;54819;48.030;14.710;2023-03-03T10:19:14;97765.40;;;9.00
68027;BMP180;54819;48.030;14.710;2023-03-03T10:22:06;97772.40;;;9.02
68027;BMP180;54819;48.030;14.710;2023-03-03T10:25:06;97777.60;;;9.10
68027;BMP180;54819;48.030;14.710;2023-03-03T10:27:46;97777.00;;;9.12
68027;BMP180;54819;48.030;14.710;2023-03-03T10:47:43;97779.60;;;9.60
68027;BMP180;54819;48.030;14.710;2023-03-03T10:53:13;97776.20;;;9.70
68027;BMP180;54819;48.030;14.710;2023-03-03T10:59:37;97760.60;;;9.70
68027;BMP180;54819;48.030;14.710;2023-03-03T11:02:28;97760.60;;;9.76
68027;BMP180;54819;48.030;14.710;2023-03-03T11:05:18;97762.00;;;9.80
68027;BMP180;54819;48.030;14.710;2023-03-03T11:07:57;97758.00;;;9.80
68027;BMP180;54819;48.030;14.710;2023-03-03T11:13:47;97744.00;;;9.90
68027;BMP180;54819;48.030;14.710;2023-03-03T11:16:40;97748.80;;;10.00
68027;BMP180;54819;48.030;14.710;2023-03-03T11:21:59;97744.60;;;10.10
68027;BMP180;54819;48.030;14.710;2023-03-03T11:24:40;97730.00;;;10.10
68027;BMP180;54819;48.030;14.710;2023-03-03T11:33:19;97722.60;;;10.10
68027;BMP180;54819;48.030;14.710;2023-03-03T11:36:20;97715.80;;;10.20
68027;BMP180;54819;48.030;14.710;2023-03-03T11:38:59;97712.20;;;10.30
68027;BMP180;54819;48.030;14.710;2023-03-03T11:41:36;97714.60;;;10.40
68027;BMP180;54819;48.030;14.710;2023-03-03T11:44:39;97713.60;;;10.44
68027;BMP180;54819;48.030;14.710;2023-03-03T11:47:33;97707.20;;;10.50
68027;BMP180;54819;48.030;14.710;2023-03-03T11:50:15;97699.80;;;10.50
68027;BMP180;54819;48.030;14.710;2023-03-03T11:52:49;97696.40;;;10.50
68027;BMP180;54819;48.030;14.710;2023-03-03T11:55:40;97695.60;;;10.60
68027;BMP180;54819;48.030;14.710;2023-03-03T12:00:59;97696.00;;;10.60
68027;BMP180;54819;48.030;14.710;2023-03-03T12:06:23;97693.60;;;10.70
68027;BMP180;54819;48.030;14.710;2023-03-03T12:09:05;97694.60;;;10.70
68027;BMP180;54819;48.030;14.710;2023-03-03T12:12:18;97695.20;;;10.70
68027;BMP180;54819;48.030;14.710;2023-03-03T12:24:07;97674.60;;;10.90
68027;BMP180;54819;48.030;14.710;2023-03-03T12:26:11;97677.80;;;11.00
68027;BMP180;54819;48.030;14.710;2023-03-03T12:34:16;97678.20;;;11.00
68027;BMP180;54819;48.030;14.710;2023-03-03T12:36:58;97676.00;;;11.10
68027;BMP180;54819;48.030;14.710;2023-03-03T12:48:34;97664.20;;;11.10
68027;BMP180;54819;48.030;14.710;2023-03-03T12:54:10;97658.80;;;11.10
68027;BMP180;54819;48.030;14.710;2023-03-03T12:56:53;97655.60;;;11.18
68027;BMP180;54819;48.030;14.710;2023-03-03T12:59:34;97649.40;;;11.20
68027;BMP180;54819;48.030;14.710;2023-03-03T13:05:19;97647.20;;;11.20
68027;BMP180;54819;48.030;14.710;2023-03-03T13:10:39;97643.40;;;11.30
68027;BMP180;54819;48.030;14.710;2023-03-03T13:16:01;97652.60;;;11.40
68027;BMP180;54819;48.030;14.710;2023-03-03T13:21:10;97643.80;;;11.50
68027;BMP180;54819;48.030;14.710;2023-03-03T13:23:53;97644.80;;;11.50
68027;BMP180;54819;48.030;14.710;2023-03-03T13:26:40;97644.20;;;11.60
68027;BMP180;54819;48.030;14.710;2023-03-03T13:29:18;97647.60;;;11.60
68027;BMP180;54819;48.030;14.710;2023-03-03T13:31:53;97643.20;;;11.60
68027;BMP180;54819;48.030;14.710;2023-03-03T13:37:25;97646.80;;;11.60
68027;BMP180;54819;48.030;14.710;2023-03-03T13:44:55;97639.40;;;11.60
68027;BMP180;54819;48.030;14.710;2023-03-03T13:47:47;97637.00;;;11.64
68027;BMP180;54819;48.030;14.710;2023-03-03T13:50:28;97645.00;;;11.70
68027;BMP180;54819;48.030;14.710;2023-03-03T13:53:10;97643.80;;;11.70
68027;BMP180;54819;48.030;14.710;2023-03-03T13:55:43;97637.00;;;11.76
68027;BMP180;54819;48.030;14.710;2023-03-03T13:58:24;97635.00;;;11.80
68027;BMP180;54819;48.030;14.710;2023-03-03T14:07:01;97621.40;;;11.80
68027;BMP180;54819;48.030;14.710;2023-03-03T14:20:29;97601.00;;;11.80
68027;BMP180;54819;48.030;14.710;2023-03-03T14:23:00;97599.00;;;11.80
68027;BMP180;54819;48.030;14.710;2023-03-03T14:28:42;97598.00;;;11.90
68027;BMP180;54819;48.030;14.710;2023-03-03T14:31:37;97599.80;;;11.90
68027;BMP180;54819;48.030;14.710;2023-03-03T14:34:36;97604.20;;;11.90
68027;BMP180;54819;48.030;14.710;2023-03-03T14:45:44;97600.20;;;12.00
68027;BMP180;54819;48.030;14.710;2023-03-03T14:50:39;97599.80;;;12.00
68027;BMP180;54819;48.030;14.710;2023-03-03T14:53:11;97601.80;;;11.96
68027;BMP180;54819;48.030;14.710;2023-03-03T14:55:41;97606.40;;;11.92
68027;BMP180;54819;48.030;14.710;2023-03-03T14:58:31;97606.80;;;11.90
68027;BMP180;54819;48.030;14.710;2023-03-03T15:03:58;97604.40;;;11.90
68027;BMP180;54819;48.030;14.710;2023-03-03T15:11:59;97597.00;;;11.80
68027;BMP180;54819;48.030;14.710;2023-03-03T15:14:37;97598.00;;;11.70
68027;BMP180;54819;48.030;14.710;2023-03-03T15:22:47;97597.40;;;11.60
68027;BMP180;54819;48.030;14.710;2023-03-03T15:34:20;97596.00;;;11.50
68027;BMP180;54819;48.030;14.710;2023-03-03T15:39:55;97600.20;;;11.40
68027;BMP180;54819;48.030;14.710;2023-03-03T15:42:39;97604.80;;;11.30
68027;BMP180;54819;48.030;14.710;2023-03-03T15:45:17;97606.00;;;11.30
68027;BMP180;54819;48.030;14.710;2023-03-03T15:53:09;97612.80;;;11.10
68027;BMP180;54819;48.030;14.710;2023-03-03T15:55:51;97614.80;;;11.04
68027;BMP180;54819;48.030;14.710;2023-03-03T16:04:08;97617.60;;;10.90
68027;BMP180;54819;48.030;14.710;2023-03-03T16:20:56;97618.60;;;10.50
68027;BMP180;54819;48.030;14.710;2023-03-03T16:31:57;97631.00;;;10.10
68027;BMP180;54819;48.030;14.710;2023-03-03T16:34:43;97633.80;;;10.00
68027;BMP180;54819;48.030;14.710;2023-03-03T16:37:37;97629.40;;;9.90
68027;BMP180;54819;48.030;14.710;2023-03-03T16:40:31;97635.80;;;9.80
68027;BMP180;54819;48.030;14.710;2023-03-03T16:49:09;97654.20;;;9.50
68027;BMP180;54819;48.030;14.710;2023-03-03T16:51:49;97653.00;;;9.40
68027;BMP180;54819;48.030;14.710;2023-03-03T16:54:30;97656.80;;;9.30
68027;BMP180;54819;48.030;14.710;2023-03-03T16:57:18;97659.60;;;9.20
68027;BMP180;54819;48.030;14.710;2023-03-03T17:00:16;97671.40;;;9.10
68027;BMP180;54819;48.030;14.710;2023-03-03T17:17:00;97681.80;;;8.50
68027;BMP180;54819;48.030;14.710;2023-03-03T17:19:56;97675.80;;;8.38
68027;BMP180;54819;48.030;14.710;2023-03-03T17:31:07;97700.80;;;8.00
68027;BMP180;54819;48.030;14.710;2023-03-03T17:41:56;97707.00;;;7.70
68027;BMP180;54819;48.030;14.710;2023-03-03T17:44:37;97711.00;;;7.60
68027;BMP180;54819;48.030;14.710;2023-03-03T17:47:10;97716.60;;;7.50
68027;BMP180;54819;48.030;14.710;2023-03-03T17:49:59;97715.40;;;7.50
68027;BMP180;54819;48.030;14.710;2023-03-03T17:55:18;97727.20;;;7.32
68027;BMP180;54819;48.030;14.710;2023-03-03T18:03:33;97738.60;;;7.12
68027;BMP180;54819;48.030;14.710;2023-03-03T18:06:25;97744.20;;;7.10
68027;BMP180;54819;48.030;14.710;2023-03-03T18:11:58;97754.40;;;7.00
68027;BMP180;54819;48.030;14.710;2023-03-03T18:14:41;97760.80;;;6.90
68027;BMP180;54819;48.030;14.710;2023-03-03T18:20:26;97770.40;;;6.84
68027;BMP180;54819;48.030;14.710;2023-03-03T18:25:57;97771.00;;;6.80
68027;BMP180;54819;48.030;14.710;2023-03-03T18:28:49;97772.20;;;6.70
68027;BMP180;54819;48.030;14.710;2023-03-03T18:31:24;97778.20;;;6.70
68027;BMP180;54819;48.030;14.710;2023-03-03T18:34:07;97776.00;;;6.62
68027;BMP180;54819;48.030;14.710;2023-03-03T18:36:37;97773.20;;;6.60
68027;BMP180;54819;48.030;14.710;2023-03-03T18:39:05;97780.80;;;6.50
68027;BMP180;54819;48.030;14.710;2023-03-03T18:42:28;97782.60;;;6.50
68027;BMP180;54819;48.030;14.710;2023-03-03T18:44:57;97784.60;;;6.40
68027;BMP180;54819;48.030;14.710;2023-03-03T18:50:37;97790.60;;;6.30
68027;BMP180;54819;48.030;14.710;2023-03-03T18:53:29;97793.20;;;6.20
68027;BMP180;54819;48.030;14.710;2023-03-03T18:56:01;97786.20;;;6.10
68027;BMP180;54819;48.030;14.710;2023-03-03T18:58:39;97787.60;;;6.10
68027;BMP180;54819;48.030;14.710;2023-03-03T19:01:31;97792.80;;;6.10
68027;BMP180;54819;48.030;14.710;2023-03-03T19:04:16;97792.20;;;6.10
68027;BMP180;54819;48.030;14.710;2023-03-03T19:09:20;97792.00;;;6.20
68027;BMP180;54819;48.030;14.710;2023-03-03T19:12:09;97794.40;;;6.20
68027;BMP180;54819;48.030;14.710;2023-03-03T19:14:43;97795.40;;;6.20
68027;BMP180;54819;48.030;14.710;2023-03-03T19:20:09;97796.80;;;6.30
68027;BMP180;54819;48.030;14.710;2023-03-03T19:23:04;97795.80;;;6.30
68027;BMP180;54819;48.030;14.710;2023-03-03T19:25:33;97790.20;;;6.40
68027;BMP180;54819;48.030;14.710;2023-03-03T19:31:00;97787.00;;;6.48
68027;BMP180;54819;48.030;14.710;2023-03-03T19:36:46;97784.60;;;6.50
68027;BMP180;54819;48.030;14.710;2023-03-03T19:39:37;97781.20;;;6.54
68027;BMP180;54819;48.030;14.710;2023-03-03T19:50:24;97784.80;;;6.60